Главная страница
METAR-TAF:

METAR-TAF

Аэропорты :

Кальмар, Швеция

широта: 56-44N, долгота: 016-18E, высота над уровнем моря: 16 м

Текущие метеонаблюдения

Эта сводка был подготовлена 23 минут назад, в 11:20 UTC
Ветер 5 Узел от восточный, изменяющийся между северо-восточный и юго-восточный
Температура 28°C
Влажность 48%
Давление 1020 hPa
Видимость 10 км и более

METAR: ESMQ 091120Z AUTO 10005KT 040V130 9999 R16///// R34/P1500N NCD 28/16 Q1020

Время: 13:43 (11:43 UTC)


TAF: отсутствует

Метеонаблюдения и прогнозы для более 4000 аэропортов (сводки METAR и TAF).

Имеющиеся станции представлены на карте желтыми и красными точками.

Чтобы увидеть название станции, наведите на нее мышь.

Затем щелкните, чтобы увидеть метеонаблюдения и метеопрогнозы.

Управление картой: чтобы увеличить масштаб, щелкните зеленые кнопки с черным крестиком; чтобы уменьшить масштаб, щелкните зеленую кнопку с тире; для просмотра соседних карт щелкайте зеленые стрелки.


METAR-TAF: